• Join FlightAware (Why Join?)
  • Login
  • US Flag 
11:50PM EDT


 

Airport Tracker/Info


-or-


 

Live Flight TrackerFlight Track Log ✈ SWA419 ✈ 23-Apr-2013 ✈ KDEN - KSJC

Flight Track Log - Related Links

Times and Time Zones

All times are in EDT time to prevent confusion due to time zone crossing. See the SWA419 flight status page for this flight to view local times or setup timezone preferences in your user account.

Time Position Orientation Groundspeed Altitude Reporting Facility
EDT Latitude Longitude Course Direction KTS MPH feet Rate Location/Type
09:22PM 39.8500 -104.7500 270° West 173 199 7,000  Level Denver TRACON
09:23PM 39.8667 -104.8167 288° West 231 266 8,500 1,440 Climbing Denver TRACON
09:24PM 39.8956 -104.8706 305° West 244 281 9,400 1,020 Climbing Denver Center
09:25PM 39.9322 -104.9553 299° West 266 306 10,400 1,980 Climbing Denver Center
09:26PM 39.9356 -105.0769 272° West 327 376 13,500 3,240 Climbing Denver Center
09:27PM 39.9214 -105.2000 262° West 344 396 17,100 3,600 Climbing Denver Center
09:28PM 39.8500 -105.4914 270° West  Level FlightAware Approximate
09:28PM 39.9053 -105.3361 261° West 354 407 20,900  Level Denver Center
09:29PM 39.8900 -105.4558 261° West 317 365 24,900 3,060 Climbing Denver Center
09:30PM 39.8772 -105.5711 262° West 324 373 27,200 2,160 Climbing Denver Center
09:31PM 39.8611 -105.6942 260° West 342 394 29,400 1,140 Climbing Denver Center
09:32PM 39.8492 -105.8278 263° West 373 429 29,800 1,320 Climbing Denver Center
09:33PM 39.8347 -105.9919 264° West 387 445 32,400 2,040 Climbing Denver Center
09:34PM 39.8242 -106.1325 264° West 388 447 34,000 1,260 Climbing Denver Center
09:35PM 39.8106 -106.2769 263° West 396 456 35,100 1,440 Climbing Denver Center
09:36PM 39.7947 -106.4492 263° West 408 470 37,000 1,500 Climbing Denver Center
09:37PM 39.7850 -106.5683 264° West 398 458 38,500 1,320 Climbing Denver Center
09:39PM 39.7622 -106.7614 261° West 387 445 40,000 720 Climbing Denver Center
09:40PM 39.7478 -106.8972 262° West 384 442 40,000  Level Denver Center
09:41PM 39.7328 -107.0339 262° West 386 444 40,000  Level Denver Center
09:42PM 39.7175 -107.1719 262° West 389 448 40,000  Level Denver Center
09:43PM 39.6997 -107.3261 262° West 385 443 40,000  Level Denver Center
09:44PM 39.6858 -107.4569 262° West 383 441 40,000  Level Denver Center
09:45PM 39.6664 -107.6103 261° West 385 443 40,000  Level Denver Center
09:46PM 39.6519 -107.7428 262° West 387 445 40,000  Level Denver Center
09:47PM 39.6350 -107.8778 261° West 392 451 40,000  Level Denver Center
09:48PM 39.6158 -108.0342 261° West 394 453 40,000  Level Denver Center
09:49PM 39.6006 -108.1667 262° West 389 448 40,000  Level Denver Center
09:50PM 39.5808 -108.3203 261° West 378 435 40,000  Level Denver Center
09:51PM 39.5650 -108.4511 261° West 381 438 40,000  Level Denver Center
09:52PM 39.5492 -108.5831 261° West 384 442 40,000  Level Denver Center
09:53PM 39.5289 -108.7389 260° West 386 444 40,000  Level Denver Center
09:54PM 39.5119 -108.8747 261° West 391 450 40,000  Level Denver Center
09:55PM 39.4936 -109.0100 260° West 392 451 40,000  Level Denver Center
09:56PM 39.4739 -109.1658 261° West 392 451 40,000  Level Denver Center
09:57PM 39.4558 -109.3003 260° West 395 455 40,000  Level Denver Center
09:58PM 39.4353 -109.4575 260° West 399 459 40,000  Level Denver Center
09:59PM 39.4169 -109.5908 260° West 395 455 40,000  Level Denver Center
10:00PM 39.3961 -109.7444 260° West 389 448 40,000  Level Denver Center
10:01PM 39.3786 -109.8758 260° West 386 444 40,000  Level Denver Center
10:02PM 39.3578 -110.0278 260° West 385 443 40,000  Level Salt Lake Center
10:03PM 39.3411 -110.1586 261° West 386 444 40,000  Level Salt Lake Center
10:04PM 39.3206 -110.3092 260° West 383 441 40,000  Level Salt Lake Center
10:05PM 39.3022 -110.4389 260° West 383 441 40,000  Level Salt Lake Center
10:06PM 39.2844 -110.5706 260° West 388 447 40,000  Level Denver Center
10:07PM 39.2669 -110.7011 260° West 387 445 40,000  Level Denver Center
10:08PM 39.2447 -110.8550 259° West 389 448 40,000  Level Salt Lake Center
10:09PM 39.2222 -111.0064 259° West 385 443 40,000  Level Salt Lake Center
10:10PM 39.2036 -111.1364 260° West 385 443 40,000  Level Salt Lake Center
10:11PM 39.1850 -111.2658 260° West 385 443 40,000  Level Salt Lake Center
10:12PM 39.1636 -111.4211 260° West 384 442 40,000  Level Salt Lake Center
10:13PM 39.1442 -111.5550 259° West 383 441 40,000  Level Salt Lake Center
10:15PM 39.1242 -111.6906 259° West 386 444 40,000  Level Salt Lake Center
10:16PM 39.1047 -111.8256 260° West 386 444 40,000  Level Salt Lake Center
10:17PM 39.0842 -111.9603 259° West 386 444 40,000  Level Salt Lake Center
10:18PM 39.0636 -112.0944 259° West 385 443 40,000  Level Salt Lake Center
10:19PM 39.0425 -112.2297 259° West 386 444 40,000  Level Salt Lake Center
10:20PM 39.0172 -112.3944 259° West 393 452 40,000  Level Salt Lake Center
10:21PM 38.9958 -112.5317 259° West 395 455 40,000  Level Salt Lake Center
10:22PM 38.9739 -112.6697 258° West 395 455 40,000  Level Salt Lake Center
10:23PM 38.9525 -112.8042 258° West 389 448 40,000  Level Salt Lake Center
10:24PM 38.9317 -112.9386 259° West 386 444 40,000  Level Salt Lake Center
10:25PM 38.9100 -113.0692 258° West 379 436 40,000  Level Salt Lake Center
10:26PM 38.8883 -113.2025 258° West 381 438 40,000  Level Salt Lake Center
10:27PM 38.8628 -113.3628 258° West 384 442 40,000  Level Salt Lake Center
10:28PM 38.8406 -113.4947 258° West 381 438 40,000  Level Salt Lake Center
10:29PM 38.8194 -113.6264 258° West 379 436 40,000  Level Salt Lake Center
10:30PM 38.7975 -113.7581 258° West 379 436 40,000  Level Salt Lake Center
10:31PM 38.7747 -113.8906 258° West 381 438 40,000  Level Salt Lake Center
10:32PM 38.7522 -114.0236 258° West 384 442 40,000  Level Salt Lake Center
10:33PM 38.7300 -114.1586 258° West 388 447 40,000  Level Salt Lake Center
10:34PM 38.7017 -114.3200 257° West 389 448 40,000  Level Salt Lake Center
10:35PM 38.6778 -114.4553 257° West 391 450 40,000  Level Salt Lake Center
10:36PM 38.6547 -114.5892 258° West 389 448 40,000  Level Salt Lake Center
10:37PM 38.6303 -114.7250 257° West 392 451 40,000  Level Salt Lake Center
10:38PM 38.6031 -114.8608 256° West 396 456 40,000  Level Salt Lake Center
10:39PM 38.5803 -114.9931 258° West 389 448 40,000  Level Salt Lake Center
10:40PM 38.5575 -115.1258 258° West 385 443 40,000 -300 Level Salt Lake Center
10:41PM 38.5286 -115.2842 257° West 383 441 39,400 -780 Descending Salt Lake Center
10:42PM 38.5031 -115.4164 256° West 376 433 38,400 -720 Descending Salt Lake Center
10:43PM 38.4783 -115.5450 256° West 374 430 38,000 -240 Descending Salt Lake Center
10:44PM 38.4556 -115.6750 257° West 375 432 38,000 -300 Level Salt Lake Center
10:45PM 38.4308 -115.8083 257° West 382 440 37,400 -780 Descending Salt Lake Center
10:46PM 38.4056 -115.9422 256° West 387 445 36,500 -720 Descending Salt Lake Center
10:47PM 38.3819 -116.0781 258° West 391 450 36,000 -300 Descending Salt Lake Center
10:48PM 38.3567 -116.2131 257° West 392 451 36,000  Level Salt Lake Center
10:49PM 38.3292 -116.3486 256° West 393 452 36,000  Level Salt Lake Center
10:50PM 38.2986 -116.4847 254° West 400 460 36,000  Level Oakland Center
10:51PM 38.2678 -116.6206 254° West 399 459 36,000  Level Oakland Center
10:52PM 38.2372 -116.7564 254° West 401 461 36,000  Level Oakland Center
10:53PM 38.2067 -116.8925 254° West 400 460 36,000  Level Oakland Center
10:54PM 38.1758 -117.0275 254° West 399 459 36,000  Level Oakland Center
10:55PM 38.1397 -117.1833 254° West 405 466 36,000  Level Oakland Center
10:56PM 38.1069 -117.3219 253° West 409 471 36,000  Level Oakland Center
10:57PM 38.0717 -117.4519 251° West 404 465 36,000 -120 Level Oakland Center
10:58PM 38.0281 -117.5856 248° West 409 471 35,800 -600 Descending Oakland Center
10:59PM 37.9842 -117.7192 247° West 412 474 34,800 -900 Descending Oakland Center
11:01PM 37.9403 -117.8544 248° West 416 479 34,000 -540 Descending Oakland Center
11:02PM 37.8953 -117.9914 247° West 421 484 33,800 -600 Descending Oakland Center
11:03PM 37.8506 -118.1278 247° West 419 482 32,800 -1,020 Descending Oakland Center
11:04PM 37.8061 -118.2636 248° West 418 481 31,800 -1,080 Descending Oakland Center
11:05PM 37.7511 -118.4250 247° West 416 479 30,600 -900 Descending Oakland Center
11:06PM 37.7078 -118.5592 248° West 413 475 30,000 -300 Descending Oakland Center
11:07PM 37.6639 -118.6892 247° West 404 465 30,000  Level Oakland Center
11:08PM 37.6225 -118.8147 247° West 410 472 30,000  Level Oakland Center
11:09PM 37.5758 -118.9497 246° West 413 475 30,000  Level Oakland Center
11:10PM 37.5303 -119.0775 246° West 404 465 30,000  Level Oakland Center
11:11PM 37.4886 -119.2208 250° West 441 507 30,000  Level Oakland Center
11:12PM 37.4417 -119.3533 246° West 421 484 30,000 -540 Level Oakland Center
11:13PM 37.3864 -119.5058 246° West 416 479 29,000 -1,080 Descending Oakland Center
11:14PM 37.3394 -119.6425 247° West 412 474 27,900 -1,080 Descending Oakland Center
11:15PM 37.2953 -119.7686 246° West 399 459 26,900 -1,020 Descending Oakland Center
11:16PM 37.2731 -119.9039 258° West 389 448 25,900 -1,500 Descending Oakland Center
11:17PM 37.2578 -120.0342 262° West 379 436 23,900 -1,980 Descending Oakland Center
11:18PM 37.2450 -120.1592 263° West 361 415 21,900 -1,800 Descending Oakland Center
11:19PM 37.2314 -120.2778 262° West 345 397 20,300 -1,320 Descending Oakland Center
11:20PM 37.2178 -120.3900 261° West 331 381 19,300 -1,080 Descending Oakland Center
11:20PM 37.2167 -120.4500 269° West 356 410 18,700 -1,140 Descending Northern Cal TRACON
11:21PM 37.1833 -120.5667 250° West 351 404 17,500 -1,080 Descending Northern Cal TRACON
11:22PM 37.1667 -120.6833 260° West 311 358 16,500 -960 Descending Northern Cal TRACON
11:23PM 37.1333 -120.7667 243° Southwest 314 361 15,700 -1,020 Descending Northern Cal TRACON
11:24PM 37.1167 -120.8833 260° West 313 360 14,600 -1,020 Descending Northern Cal TRACON
11:25PM 37.1064 -120.9208 251° West 300 345 14,200 -840 Descending Oakland Center
11:26PM 37.0842 -121.0258 255° West 310 357 13,300 -1,140 Descending Oakland Center
11:27PM 37.0622 -121.1289 255° West 309 356 12,000 -1,260 Descending Oakland Center
11:28PM 37.0589 -121.2350 268° West 299 344 10,800 -1,200 Descending Oakland Center
11:29PM 37.0553 -121.3378 268° West 296 341 9,600 -1,680 Descending Oakland Center
11:30PM 37.0814 -121.4483 287° West 281 323 7,500 -1,740 Descending Oakland Center
11:31PM 37.1108 -121.5383 292° West 280 322 6,100 -1,140 Descending Oakland Center
11:32PM 37.1361 -121.6264 290° West 274 315 5,300 -600 Descending Oakland Center
11:33PM 37.1586 -121.7022 290° West 249 287 5,000 -600 Descending Oakland Center
11:34PM 37.2003 -121.7592 313° West 234 269 4,200 -1,140 Descending Oakland Center
11:35PM 37.2469 -121.8056 322° Northwest 221 254 2,800 -1,200 Descending Oakland Center
11:36PM 37.2869 -121.8472 320° Northwest 201 231 1,800 -900 Descending Oakland Center
11:37PM 37.3164 -121.8814 317° Northwest 168 193 1,000 -780 Descending Oakland Center
11:38PM 37.3431 -121.9106 319° Northwest 145 167 300 -720 Descending Oakland Center
11:40PM 37.3500 -121.9167 North  Level FlightAware Approximate
11:47PM 37.3627 -121.9291 North  Level Estimated